createdAt,value
2022-08-18T00:01:16.039Z,71.05
2022-08-18T00:03:57.360Z,71.20
2022-08-18T00:06:30.510Z,70.44
2022-08-18T00:08:59.335Z,70.90
2022-08-18T00:11:41.464Z,70.77
2022-08-18T00:14:22.660Z,71.50
2022-08-18T00:16:52.422Z,72.19
2022-08-18T00:19:20.295Z,72.04
2022-08-18T00:22:08.366Z,72.21
2022-08-18T00:24:48.639Z,72.45
2022-08-18T00:27:23.227Z,72.92
2022-08-18T00:29:52.322Z,73.09
2022-08-18T00:32:25.301Z,73.03
2022-08-18T00:34:55.500Z,73.28
2022-08-18T00:37:23.986Z,73.54
2022-08-18T00:39:52.859Z,73.36
2022-08-18T00:42:28.171Z,73.78
2022-08-18T00:45:04.362Z,74.06
2022-08-18T00:47:36.362Z,73.85
2022-08-18T00:50:14.999Z,73.98
2022-08-18T00:52:53.515Z,74.13
2022-08-18T00:55:20.935Z,73.67
2022-08-18T00:57:50.312Z,74.11
2022-08-18T01:00:17.922Z,74.71
2022-08-18T01:02:48.592Z,74.41
2022-08-18T01:05:33.964Z,74.26
2022-08-18T01:08:01.096Z,74.31
2022-08-18T01:10:28.077Z,74.36
2022-08-18T01:12:58.349Z,74.48
2022-08-18T01:15:28.106Z,73.95
2022-08-18T01:18:17.788Z,73.89
2022-08-18T01:21:13.031Z,73.86
2022-08-18T01:23:41.394Z,74.26
2022-08-18T01:26:09.408Z,74.11
2022-08-18T01:28:45.987Z,74.13
2022-08-18T01:31:30.776Z,74.58
2022-08-18T01:33:58.951Z,74.56
2022-08-18T01:36:25.872Z,75.67
2022-08-18T01:38:53.760Z,76.26
2022-08-18T01:41:30.384Z,76.48
2022-08-18T01:43:59.570Z,76.42
2022-08-18T01:46:28.400Z,76.34
2022-08-18T01:48:55.789Z,76.78
2022-08-18T01:51:39.966Z,76.97
2022-08-18T01:54:11.649Z,76.69
2022-08-18T01:56:39.091Z,76.96
2022-08-18T01:59:07.803Z,76.79
2022-08-18T02:01:48.517Z,76.93
2022-08-18T02:04:35.575Z,76.43
2022-08-18T02:07:07.015Z,76.99
2022-08-18T02:09:34.516Z,76.63
2022-08-18T02:12:02.485Z,76.61
2022-08-18T02:14:31.464Z,76.52
2022-08-18T02:17:01.627Z,76.57
2022-08-18T02:19:40.295Z,76.58
2022-08-18T02:22:09.333Z,76.59
2022-08-18T02:24:36.740Z,76.83
2022-08-18T02:27:05.918Z,76.71
2022-08-18T02:29:33.169Z,77.31
2022-08-18T02:32:00.036Z,77.87
2022-08-18T02:34:28.548Z,77.68
2022-08-18T02:36:56.283Z,77.70
2022-08-18T02:39:23.109Z,78.31
2022-08-18T02:41:51.347Z,78.40
2022-08-18T02:44:18.240Z,77.89
2022-08-18T02:46:46.334Z,78.34
2022-08-18T02:49:13.211Z,78.45
2022-08-18T02:51:40.311Z,78.45
2022-08-18T02:54:11.492Z,78.96
2022-08-18T02:56:42.374Z,79.48
2022-08-18T02:59:16.326Z,79.42
2022-08-18T03:01:48.979Z,79.94
2022-08-18T03:04:22.037Z,79.58
2022-08-18T03:06:52.578Z,80.13
2022-08-18T03:09:19.871Z,79.94
2022-08-18T03:11:47.679Z,80.09
2022-08-18T03:14:16.757Z,80.24
2022-08-18T03:16:53.703Z,80.10
2022-08-18T03:19:28.420Z,79.64
2022-08-18T03:21:59.446Z,80.37
2022-08-18T03:24:31.484Z,80.04
2022-08-18T03:27:00.104Z,80.23
2022-08-18T03:29:31.992Z,80.19
2022-08-18T03:32:02.392Z,80.26
2022-08-18T03:34:29.943Z,79.90
2022-08-18T03:36:56.976Z,80.74
2022-08-18T03:39:25.172Z,80.74
2022-08-18T03:41:58.508Z,80.96
2022-08-18T03:44:28.764Z,81.01
2022-08-18T03:46:55.909Z,81.91
2022-08-18T03:49:24.343Z,82.45
2022-08-18T03:51:51.815Z,82.84
2022-08-18T03:54:19.100Z,82.82
2022-08-18T03:56:49.422Z,82.66
2022-08-18T03:59:22.328Z,82.18
2022-08-18T04:01:51.374Z,81.88
2022-08-18T04:04:21.486Z,81.20
2022-08-18T04:06:53.974Z,80.71
2022-08-18T04:09:22.359Z,80.51
2022-08-18T04:11:49.927Z,80.13
2022-08-18T04:14:21.996Z,79.99
2022-08-18T04:16:49.300Z,79.72
2022-08-18T04:19:26.564Z,79.91
2022-08-18T04:21:58.567Z,79.92
2022-08-18T04:24:31.236Z,79.75
2022-08-18T04:27:01.124Z,80.01
2022-08-18T04:29:28.681Z,80.13
2022-08-18T04:31:56.143Z,80.25
2022-08-18T04:34:23.454Z,79.92
2022-08-18T04:36:54.445Z,79.17
2022-08-18T04:39:23.192Z,80.23
2022-08-18T04:41:50.482Z,80.84
2022-08-18T04:44:18.300Z,80.62
2022-08-18T04:46:58.852Z,80.97
2022-08-18T04:49:26.426Z,81.08
2022-08-18T04:52:38.361Z,80.24
2022-08-18T04:55:01.965Z,80.12
2022-08-18T04:57:34.045Z,80.63
2022-08-18T05:00:02.832Z,80.84
2022-08-18T05:02:31.559Z,80.34
2022-08-18T05:04:59.442Z,80.18
2022-08-18T05:07:26.383Z,80.25
2022-08-18T05:09:55.635Z,80.48
2022-08-18T05:12:25.171Z,79.37
2022-08-18T05:14:53.998Z,78.97
2022-08-18T05:17:21.813Z,78.93
2022-08-18T05:19:51.694Z,78.66
2022-08-18T05:22:24.274Z,78.56
2022-08-18T05:24:58.391Z,77.89
2022-08-18T05:27:25.274Z,77.90
2022-08-18T05:29:53.269Z,77.75
2022-08-18T05:32:38.274Z,77.37
2022-08-18T05:35:12.285Z,77.50
2022-08-18T05:37:58.760Z,77.10
2022-08-18T05:40:26.057Z,77.13
2022-08-18T05:42:57.450Z,77.31
2022-08-18T05:45:24.894Z,77.41
2022-08-18T05:47:59.477Z,77.47
2022-08-18T05:50:27.890Z,77.21
2022-08-18T05:53:13.729Z,77.21
2022-08-18T05:56:10.301Z,77.19
2022-08-18T05:58:40.760Z,77.17
2022-08-18T06:01:19.708Z,77.15
2022-08-18T06:03:50.384Z,77.10
2022-08-18T06:06:21.649Z,77.46
2022-08-18T06:09:20.267Z,77.09
2022-08-18T06:11:49.448Z,77.04
2022-08-18T06:14:17.063Z,76.90
2022-08-18T06:17:10.444Z,76.67
2022-08-18T06:19:52.898Z,76.34
2022-08-18T06:22:52.414Z,76.33
2022-08-18T06:25:25.216Z,75.72
2022-08-18T06:27:55.721Z,75.49
2022-08-18T06:30:33.339Z,74.77
2022-08-18T06:33:25.680Z,73.69
2022-08-18T06:35:58.652Z,73.33
2022-08-18T06:38:45.582Z,73.26
2022-08-18T06:41:41.652Z,73.12
2022-08-18T06:44:51.726Z,72.61
2022-08-18T06:47:35.295Z,71.75
2022-08-18T06:50:13.704Z,70.70
2022-08-18T06:53:02.172Z,69.88
2022-08-18T06:55:37.070Z,69.73
2022-08-18T06:58:18.001Z,69.60
2022-08-18T07:00:54.917Z,69.41
2022-08-18T07:03:44.977Z,68.70
2022-08-18T07:06:24.258Z,68.98
2022-08-18T07:08:53.845Z,68.62
2022-08-18T07:11:28.719Z,68.62
2022-08-18T07:14:15.436Z,68.51
2022-08-18T07:16:58.393Z,68.05
2022-08-18T07:19:30.177Z,67.23
2022-08-18T07:22:18.124Z,66.66
2022-08-18T07:24:48.991Z,65.53
2022-08-18T07:27:22.794Z,65.20
2022-08-18T07:29:59.699Z,64.65
2022-08-18T07:32:34.549Z,65.00
2022-08-18T07:35:03.713Z,64.96
2022-08-18T07:37:44.122Z,64.94
2022-08-18T07:40:26.619Z,64.63
2022-08-18T07:43:02.556Z,64.62
2022-08-18T07:45:32.828Z,63.95
2022-08-18T07:48:37.201Z,63.42
2022-08-18T07:51:33.315Z,62.49
2022-08-18T07:54:48.242Z,61.89
2022-08-18T07:57:21.409Z,61.77
2022-08-18T07:59:56.276Z,61.40
2022-08-18T08:02:59.201Z,61.07
2022-08-18T08:05:45.139Z,61.14
2022-08-18T08:08:38.034Z,60.62
2022-08-18T08:11:27.479Z,60.74
2022-08-18T08:14:16.265Z,61.08
2022-08-18T08:16:47.147Z,61.58
2022-08-18T08:19:42.558Z,61.67
2022-08-18T08:22:29.336Z,61.69
2022-08-18T08:25:46.337Z,62.03
2022-08-18T08:28:42.630Z,62.14
2022-08-18T08:31:37.405Z,61.94
2022-08-18T08:34:21.703Z,61.07
2022-08-18T08:36:50.581Z,60.75
2022-08-18T08:39:36.751Z,60.59
2022-08-18T08:42:30.897Z,60.21
2022-08-18T08:45:25.866Z,60.71
2022-08-18T08:48:28.756Z,61.05
2022-08-18T08:51:01.761Z,61.22
2022-08-18T08:53:34.757Z,61.17
2022-08-18T08:56:07.725Z,61.15
2022-08-18T08:58:40.864Z,60.93
2022-08-18T09:01:17.379Z,60.34
2022-08-18T09:03:50.876Z,59.35
2022-08-18T09:06:41.756Z,58.92
2022-08-18T09:09:21.197Z,58.62
2022-08-18T09:12:13.549Z,57.47
2022-08-18T09:15:09.092Z,56.41
2022-08-18T09:17:50.771Z,54.54
2022-08-18T09:20:49.162Z,52.45
2022-08-18T09:23:29.291Z,51.19
2022-08-18T09:26:00.913Z,50.20
2022-08-18T09:28:27.853Z,49.02
2022-08-18T09:31:08.960Z,48.25
2022-08-18T09:33:48.568Z,48.08
2022-08-18T09:36:48.272Z,47.90
2022-08-18T09:39:54.908Z,47.55
2022-08-18T09:45:33.525Z,46.91
2022-08-18T09:48:28.416Z,47.48
2022-08-18T09:50:37.043Z,46.27
2022-08-18T09:51:20.303Z,46.40
2022-08-18T09:53:47.416Z,46.27
2022-08-18T10:01:56.092Z,48.02
2022-08-18T10:04:49.431Z,46.88
2022-08-18T10:07:38.921Z,45.96
2022-08-18T10:11:00.502Z,45.70
2022-08-18T10:13:48.317Z,44.73
2022-08-18T10:16:25.935Z,43.96
2022-08-18T10:19:16.882Z,42.53
2022-08-18T10:22:00.295Z,41.37
2022-08-18T10:24:51.713Z,41.49
2022-08-18T10:27:44.706Z,41.27
2022-08-18T10:30:34.638Z,41.50
2022-08-18T10:33:17.629Z,39.71
2022-08-18T10:35:58.533Z,39.57
2022-08-18T10:41:31.029Z,39.53
2022-08-18T10:43:59.487Z,39.18
2022-08-18T10:46:34.343Z,39.09
2022-08-18T10:49:13.064Z,40.41
2022-08-18T10:51:59.247Z,40.14
2022-08-18T10:58:14.417Z,41.89
2022-08-18T11:01:06.531Z,41.64
2022-08-18T11:04:27.455Z,41.53
2022-08-18T11:07:07.768Z,41.90
2022-08-18T11:09:36.930Z,43.10
2022-08-18T11:12:11.811Z,42.67
2022-08-18T11:14:51.874Z,42.22
2022-08-18T11:17:32.023Z,41.81
2022-08-18T11:20:01.765Z,42.37
2022-08-18T11:22:34.460Z,41.34
2022-08-18T11:25:17.535Z,40.73
2022-08-18T11:27:47.267Z,39.29
2022-08-18T11:30:17.248Z,38.71
2022-08-18T11:32:52.193Z,38.80
2022-08-18T11:35:25.676Z,38.73
2022-08-18T11:37:58.024Z,39.05
2022-08-18T11:41:09.126Z,38.26
2022-08-18T11:43:21.605Z,38.21
2022-08-18T11:45:58.226Z,39.91
2022-08-18T11:48:39.015Z,38.65
2022-08-18T11:51:25.594Z,38.67
2022-08-18T11:54:18.618Z,38.89
2022-08-18T11:56:48.054Z,38.74
2022-08-18T11:59:53.896Z,39.17
2022-08-18T12:02:18.698Z,38.75
2022-08-18T12:04:51.050Z,38.28
2022-08-18T12:07:30.181Z,38.82
2022-08-18T12:10:26.519Z,39.57
2022-08-18T12:12:59.994Z,39.57
2022-08-18T12:15:47.046Z,38.33
2022-08-18T12:18:28.295Z,39.56
2022-08-18T12:20:58.471Z,40.22
2022-08-18T12:23:26.196Z,41.22
2022-08-18T12:25:53.300Z,42.23
2022-08-18T12:28:22.490Z,42.44
2022-08-18T12:30:56.017Z,42.27
2022-08-18T12:33:34.449Z,42.34
2022-08-18T12:36:15.809Z,41.63
2022-08-18T12:38:44.530Z,41.44
2022-08-18T12:41:24.905Z,41.57
2022-08-18T12:43:58.543Z,42.15
2022-08-18T12:46:31.800Z,41.69
2022-08-18T12:48:59.458Z,41.35
2022-08-18T12:51:30.790Z,40.11
2022-08-18T12:54:00.281Z,40.44
2022-08-18T12:56:30.956Z,39.35
2022-08-18T12:59:04.186Z,39.20
2022-08-18T13:01:34.008Z,39.01
2022-08-18T13:04:13.090Z,38.98
2022-08-18T13:06:59.222Z,38.66
2022-08-18T13:09:35.183Z,37.49
2022-08-18T13:12:20.816Z,39.26
2022-08-18T13:14:48.678Z,40.27
2022-08-18T13:17:32.098Z,40.20
2022-08-18T13:20:13.524Z,40.38
2022-08-18T13:22:41.626Z,39.81
2022-08-18T13:25:13.187Z,39.54
2022-08-18T13:28:00.774Z,39.40
2022-08-18T13:30:32.123Z,39.12
2022-08-18T13:33:05.770Z,38.88
2022-08-18T13:35:54.174Z,38.37
2022-08-18T13:38:27.123Z,38.06
2022-08-18T13:40:59.779Z,38.76
2022-08-18T13:43:32.037Z,38.91
2022-08-18T13:45:59.979Z,38.65
2022-08-18T13:48:28.526Z,38.23
2022-08-18T13:51:00.963Z,37.65
2022-08-18T13:53:29.892Z,37.80
2022-08-18T13:55:59.614Z,36.49
2022-08-18T13:58:28.259Z,36.89
2022-08-18T14:01:39.484Z,37.30
2022-08-18T14:03:53.374Z,37.47
2022-08-18T14:06:22.619Z,37.51
2022-08-18T14:08:52.579Z,38.15
2022-08-18T14:11:27.775Z,38.02
2022-08-18T14:14:02.085Z,38.96
2022-08-18T14:16:30.832Z,38.48
2022-08-18T14:19:17.852Z,38.25
2022-08-18T14:22:11.524Z,38.65
2022-08-18T14:24:59.259Z,38.06
2022-08-18T14:27:35.537Z,37.68
2022-08-18T14:30:06.965Z,37.45
2022-08-18T14:32:36.359Z,37.47
2022-08-18T14:35:31.721Z,37.00
2022-08-18T14:37:53.693Z,36.68
2022-08-18T14:40:23.767Z,36.99
2022-08-18T14:42:54.323Z,36.90
2022-08-18T14:45:31.407Z,36.44
2022-08-18T14:48:06.451Z,37.31
2022-08-18T14:50:34.796Z,37.29
2022-08-18T14:53:02.651Z,37.07
2022-08-18T14:55:30.546Z,37.28
2022-08-18T14:57:59.358Z,37.07
2022-08-18T15:00:27.740Z,37.07
2022-08-18T15:02:55.301Z,37.04
2022-08-18T15:05:24.393Z,36.94
2022-08-18T15:07:52.769Z,37.07
2022-08-18T15:10:23.476Z,36.76
2022-08-18T15:13:04.557Z,36.64
2022-08-18T15:15:50.544Z,36.79
2022-08-18T15:18:22.690Z,37.21
2022-08-18T15:21:19.643Z,37.63
2022-08-18T15:24:20.084Z,37.61
2022-08-18T15:26:51.840Z,37.56
2022-08-18T15:29:28.004Z,37.99
2022-08-18T15:32:05.334Z,37.86
2022-08-18T15:34:45.954Z,36.82
2022-08-18T15:37:14.113Z,37.02
2022-08-18T15:39:41.660Z,37.61
2022-08-18T15:42:10.792Z,37.29
2022-08-18T15:44:38.247Z,37.84
2022-08-18T15:47:09.351Z,38.51
2022-08-18T15:49:36.655Z,38.02
2022-08-18T15:52:04.187Z,37.17
2022-08-18T15:54:31.323Z,37.74
2022-08-18T15:56:58.954Z,38.06
2022-08-18T15:59:39.985Z,38.35
2022-08-18T16:02:11.456Z,38.52
2022-08-18T16:04:41.374Z,38.47
2022-08-18T16:07:12.888Z,38.04
2022-08-18T16:09:39.897Z,38.41
2022-08-18T16:12:09.317Z,38.78
2022-08-18T16:14:40.689Z,39.37
2022-08-18T16:17:09.422Z,39.93
2022-08-18T16:19:45.409Z,40.10
2022-08-18T16:22:13.455Z,39.94
2022-08-18T16:24:40.814Z,40.09
2022-08-18T16:27:08.829Z,40.51
2022-08-18T16:29:36.584Z,40.77
2022-08-18T16:32:04.394Z,40.42
2022-08-18T16:34:43.442Z,40.94
2022-08-18T16:37:11.169Z,40.88
2022-08-18T16:39:39.510Z,40.76
2022-08-18T16:42:07.890Z,41.13
2022-08-18T16:44:36.545Z,41.22
2022-08-18T16:47:07.741Z,41.37
2022-08-18T16:49:35.975Z,40.82
2022-08-18T16:52:03.498Z,41.26
2022-08-18T16:54:30.928Z,41.57
2022-08-18T16:56:58.335Z,42.02
2022-08-18T16:59:44.549Z,42.04
2022-08-18T17:02:33.109Z,42.25
2022-08-18T17:05:02.743Z,42.57
2022-08-18T17:07:31.635Z,42.51
2022-08-18T17:10:00.304Z,42.69
2022-08-18T17:12:30.040Z,42.60
2022-08-18T17:15:03.799Z,43.06
2022-08-18T17:17:31.887Z,43.38
2022-08-18T17:19:59.437Z,43.65
2022-08-18T17:22:27.221Z,44.02
2022-08-18T17:25:00.534Z,44.39
2022-08-18T17:27:37.319Z,45.00
2022-08-18T17:30:22.820Z,45.31
2022-08-18T17:33:32.982Z,45.25
2022-08-18T17:36:05.577Z,45.44
2022-08-18T17:38:36.588Z,45.66
2022-08-18T17:41:07.146Z,45.96
2022-08-18T17:46:28.306Z,46.10
2022-08-18T17:49:25.393Z,46.15
2022-08-18T17:51:55.425Z,46.44
2022-08-18T17:54:37.018Z,46.95
2022-08-18T17:57:11.247Z,47.37
2022-08-18T17:59:52.016Z,47.08
2022-08-18T18:02:29.626Z,47.37
2022-08-18T18:08:57.128Z,47.99
2022-08-18T18:11:31.511Z,47.84
2022-08-18T18:14:24.470Z,48.21
2022-08-18T18:17:02.369Z,47.98
2022-08-18T18:19:33.102Z,48.48
2022-08-18T18:22:11.353Z,48.37
2022-08-18T18:24:39.989Z,48.79
2022-08-18T18:27:28.894Z,49.02
2022-08-18T18:30:06.168Z,48.65
2022-08-18T18:32:40.256Z,49.06
2022-08-18T18:35:14.142Z,49.59
2022-08-18T18:41:02.369Z,49.59
2022-08-18T18:44:04.981Z,49.98
2022-08-18T18:46:34.539Z,50.54
2022-08-18T18:49:10.676Z,50.24
2022-08-18T18:52:02.195Z,50.80
2022-08-18T18:54:36.394Z,50.90
2022-08-18T18:57:10.914Z,51.49
2022-08-18T19:00:00.752Z,51.76
2022-08-18T19:02:48.149Z,52.14
2022-08-18T19:05:35.901Z,52.71
2022-08-18T19:08:18.044Z,52.88
2022-08-18T19:11:00.989Z,52.80
2022-08-18T19:13:36.043Z,53.00
2022-08-18T19:16:34.054Z,53.42
2022-08-18T19:19:36.890Z,53.92
2022-08-18T19:25:24.845Z,53.94
2022-08-18T19:28:09.800Z,54.21
2022-08-18T19:30:40.634Z,54.12
2022-08-18T19:33:10.277Z,53.93
2022-08-18T19:35:58.631Z,53.79
2022-08-18T19:39:02.697Z,53.79
2022-08-18T19:41:45.831Z,53.82
2022-08-18T19:44:29.133Z,53.43
2022-08-18T19:47:15.996Z,53.60
2022-08-18T19:50:11.904Z,53.17
2022-08-18T19:53:04.847Z,53.05
2022-08-18T19:56:10.297Z,53.68
2022-08-18T19:59:15.773Z,53.61
2022-08-18T20:02:34.103Z,53.56
2022-08-18T20:05:07.181Z,54.14
2022-08-18T20:07:56.599Z,54.16
2022-08-18T20:10:38.855Z,54.45
2022-08-18T20:13:24.208Z,54.75
2022-08-18T20:15:59.699Z,55.25
2022-08-18T20:18:35.312Z,55.43
2022-08-18T20:21:15.811Z,55.56
2022-08-18T20:23:58.189Z,55.45
2022-08-18T20:26:41.146Z,55.83
2022-08-18T20:29:16.047Z,56.77
2022-08-18T20:31:50.046Z,56.87
2022-08-18T20:34:25.947Z,57.85
2022-08-18T20:36:53.643Z,57.31
2022-08-18T20:39:30.134Z,57.54
2022-08-18T20:42:00.083Z,57.59
2022-08-18T20:44:49.665Z,57.64
2022-08-18T20:47:32.360Z,57.64
2022-08-18T20:50:23.378Z,57.78
2022-08-18T20:53:15.390Z,57.57
2022-08-18T20:56:31.277Z,58.08
2022-08-18T20:59:08.636Z,58.25
2022-08-18T21:01:38.702Z,58.63
2022-08-18T21:04:06.999Z,59.16
2022-08-18T21:06:44.717Z,59.22
2022-08-18T21:09:17.847Z,59.23
2022-08-18T21:11:46.272Z,59.37
2022-08-18T21:14:24.159Z,59.63
2022-08-18T21:16:55.773Z,59.45
2022-08-18T21:19:29.004Z,59.85
2022-08-18T21:22:23.934Z,59.54
2022-08-18T21:24:54.131Z,59.70
2022-08-18T21:27:29.360Z,60.19
2022-08-18T21:30:07.425Z,60.45
2022-08-18T21:32:37.202Z,60.32
2022-08-18T21:35:42.541Z,60.42
2022-08-18T21:38:12.599Z,60.90
2022-08-18T21:40:46.811Z,60.88
2022-08-18T21:43:58.357Z,61.05
2022-08-18T21:46:29.084Z,60.94
2022-08-18T21:49:03.302Z,61.39
2022-08-18T21:51:42.395Z,61.18
2022-08-18T21:54:12.760Z,61.66
2022-08-18T21:56:40.325Z,61.24
2022-08-18T21:59:23.457Z,61.60
2022-08-18T22:01:54.355Z,61.64
2022-08-18T22:04:37.153Z,61.79
2022-08-18T22:07:34.791Z,61.79
2022-08-18T22:10:26.183Z,61.76
2022-08-18T22:13:17.013Z,62.18
2022-08-18T22:16:12.915Z,62.07
2022-08-18T22:18:40.121Z,62.32
2022-08-18T22:21:37.832Z,62.74
2022-08-18T22:24:20.033Z,62.74
2022-08-18T22:27:12.448Z,63.16
2022-08-18T22:29:50.837Z,63.42
2022-08-18T22:32:21.561Z,63.06
2022-08-18T22:34:53.393Z,63.03
2022-08-18T22:37:26.090Z,63.42
2022-08-18T22:40:06.169Z,63.41
2022-08-18T22:42:33.789Z,63.55
2022-08-18T22:45:04.602Z,63.79
2022-08-18T22:47:43.157Z,63.70
2022-08-18T22:50:13.245Z,63.80
2022-08-18T22:52:43.138Z,63.71
2022-08-18T22:55:13.159Z,64.06
2022-08-18T22:57:42.960Z,64.51
2022-08-18T23:00:17.315Z,64.00
2022-08-18T23:02:45.184Z,64.53
2022-08-18T23:05:12.316Z,64.41
2022-08-18T23:07:39.362Z,64.65
2022-08-18T23:10:13.438Z,64.81
2022-08-18T23:12:43.648Z,65.22
2022-08-18T23:15:13.067Z,65.18
2022-08-18T23:17:42.310Z,65.25
2022-08-18T23:20:18.014Z,65.61
2022-08-18T23:22:47.781Z,65.44
2022-08-18T23:25:16.675Z,65.66
2022-08-18T23:27:43.769Z,66.15
2022-08-18T23:30:11.689Z,65.82
2022-08-18T23:32:38.689Z,66.06
2022-08-18T23:35:05.786Z,65.86
2022-08-18T23:37:32.894Z,66.33
2022-08-18T23:40:00.389Z,66.34
2022-08-18T23:42:27.471Z,66.70
2022-08-18T23:44:58.923Z,66.73
2022-08-18T23:47:26.302Z,66.60
2022-08-18T23:49:53.803Z,66.52
2022-08-18T23:52:21.531Z,66.52
2022-08-18T23:54:48.569Z,67.04
2022-08-18T23:57:16.484Z,66.95
2022-08-18T23:59:43.378Z,67.05
